Time;durP1;ratioP1;P1;durP2;ratioP2;P2;SDS_P1;SDS_P2;PMS_P1;PMS_P2;Temp;Humidity;BMP_temperature;BMP_pressure;BME280_temperature;BME280_humidity;BME280_pressure;Samples;Min_cycle;Max_cycle;Signal;HPM_P1;HPM_P2
2022/05/21 00:03:24;;;;;;;4.80;4.50;;;20.80;99.90;;;;;;10397059;28;20204;-76
2022/05/21 00:08:26;;;;;;;5.17;4.77;;;20.80;99.90;;;;;;10395134;28;20585;-76
2022/05/21 00:13:29;;;;;;;4.40;4.10;;;20.80;99.90;;;;;;10399537;28;20285;-76
2022/05/21 00:18:33;;;;;;;5.63;5.13;;;20.80;99.90;;;;;;10394076;28;20712;-76
2022/05/21 00:23:36;;;;;;;4.40;4.10;;;20.80;99.90;;;;;;10393526;28;20198;-76
2022/05/21 00:28:40;;;;;;;5.27;4.30;;;20.80;99.90;;;;;;10396953;28;20651;-76
2022/05/21 00:33:45;;;;;;;4.63;4.23;;;20.70;99.90;;;;;;10397609;28;20586;-76
2022/05/21 00:38:47;;;;;;;4.97;4.47;;;20.70;99.90;;;;;;10400505;28;20231;-76
2022/05/21 00:43:51;;;;;;;4.90;4.57;;;20.70;99.90;;;;;;10404046;28;20277;-76
2022/05/21 00:49:02;;;;;;;4.50;4.20;;;20.60;99.90;;;;;;10407770;28;20220;-76
2022/05/21 00:54:06;;;;;;;4.60;4.20;;;20.60;99.90;;;;;;10410173;28;20227;-76
2022/05/21 01:04:32;;;;;;;4.97;4.37;;;20.50;99.90;;;;;;10404528;28;20198;-75
2022/05/21 01:09:35;;;;;;;4.13;3.73;;;20.40;99.90;;;;;;10408979;28;20230;-75
2022/05/21 01:14:39;;;;;;;3.97;3.67;;;20.40;99.90;;;;;;10407208;28;20202;-75
2022/05/21 01:19:57;;;;;;;4.70;3.70;;;20.30;99.90;;;;;;10408708;28;20301;-75
2022/05/21 01:25:00;;;;;;;4.43;4.13;;;20.20;99.90;;;;;;10409545;28;20205;-75
2022/05/21 01:30:05;;;;;;;3.90;3.70;;;20.20;99.90;;;;;;10408820;28;20232;-75
2022/05/21 01:35:08;;;;;;;4.37;4.03;;;20.20;99.90;;;;;;10407615;28;20795;-75
2022/05/21 01:40:13;;;;;;;3.63;3.43;;;20.00;99.90;;;;;;10408975;28;20218;-76
2022/05/21 01:45:15;;;;;;;3.67;3.37;;;20.00;99.90;;;;;;10403756;28;20237;-75
2022/05/21 01:50:18;;;;;;;3.70;3.50;;;19.90;99.90;;;;;;10410376;28;20405;-78
2022/05/21 01:55:21;;;;;;;4.13;3.73;;;19.90;99.90;;;;;;10410847;28;20205;-78
2022/05/21 02:00:24;;;;;;;3.47;3.27;;;19.80;98.10;;;;;;10416750;28;20225;-78
2022/05/21 02:05:26;;;;;;;3.40;3.10;;;19.80;99.60;;;;;;10416676;28;20220;-78
2022/05/21 02:10:30;;;;;;;3.43;3.23;;;19.70;99.70;;;;;;10416288;28;20658;-78
2022/05/21 02:15:32;;;;;;;3.43;3.17;;;19.70;98.70;;;;;;10415735;28;20260;-78
2022/05/21 02:20:34;;;;;;;3.03;2.83;;;19.60;98.70;;;;;;10416820;28;20221;-78
2022/05/21 02:25:37;;;;;;;3.90;3.50;;;19.50;98.80;;;;;;10417177;28;20208;-78
2022/05/21 02:30:40;;;;;;;3.33;3.03;;;19.40;99.00;;;;;;10416768;28;20217;-78
2022/05/21 02:35:43;;;;;;;3.30;3.10;;;19.40;99.90;;;;;;10404487;28;20727;-77
2022/05/21 02:40:46;;;;;;;4.03;3.57;;;19.30;99.60;;;;;;10416966;28;20210;-78
2022/05/21 02:45:48;;;;;;;3.37;3.07;;;19.30;99.70;;;;;;10415817;28;20264;-78
2022/05/21 02:50:50;;;;;;;4.00;3.57;;;19.30;99.90;;;;;;10419209;28;20296;-78
2022/05/21 02:55:55;;;;;;;3.70;3.50;;;19.10;98.50;;;;;;10419389;28;20201;-78
2022/05/21 03:00:58;;;;;;;4.13;3.57;;;19.10;99.40;;;;;;10420337;28;20221;-78
2022/05/21 03:06:00;;;;;;;3.87;3.67;;;19.10;99.60;;;;;;10420873;28;20210;-78
2022/05/21 03:11:04;;;;;;;6.87;3.50;;;19.00;98.60;;;;;;10416545;28;20689;-78
2022/05/21 03:16:06;;;;;;;4.00;3.70;;;18.90;98.30;;;;;;10407930;28;20224;-78
2022/05/21 03:21:08;;;;;;;4.10;3.80;;;18.80;99.20;;;;;;10418304;28;20324;-78
2022/05/21 03:26:12;;;;;;;3.93;3.63;;;18.80;99.20;;;;;;10418892;28;20292;-78
2022/05/21 03:31:14;;;;;;;3.70;3.50;;;18.70;99.60;;;;;;10417048;28;20329;-78
2022/05/21 03:36:16;;;;;;;4.43;4.13;;;18.60;99.30;;;;;;10417338;28;20226;-78
2022/05/21 03:47:43;;;;;;;4.40;4.10;;;18.50;98.60;;;;;;10415480;28;20202;-78
2022/05/21 03:52:45;;;;;;;3.93;3.73;;;18.40;98.60;;;;;;10416590;28;20240;-78
2022/05/21 03:57:50;;;;;;;4.00;3.60;;;18.40;98.10;;;;;;10414437;28;20242;-78
2022/05/21 04:02:54;;;;;;;3.70;3.40;;;18.40;98.50;;;;;;10415400;28;20204;-78
2022/05/21 04:07:56;;;;;;;4.20;3.83;;;18.30;99.30;;;;;;10413404;28;20701;-75
2022/05/21 04:12:58;;;;;;;3.90;3.60;;;18.30;99.70;;;;;;10412120;28;20229;-78
2022/05/21 04:18:02;;;;;;;4.10;3.63;;;18.30;99.10;;;;;;10406110;28;20218;-78
2022/05/21 04:23:05;;;;;;;3.40;3.10;;;18.30;98.70;;;;;;10410874;28;20248;-78
2022/05/21 04:28:07;;;;;;;3.73;3.43;;;18.30;98.60;;;;;;10410694;28;20348;-77
2022/05/21 04:33:11;;;;;;;4.40;4.03;;;18.20;98.10;;;;;;10410902;28;20237;-78
2022/05/21 04:38:13;;;;;;;3.63;3.40;;;18.20;98.10;;;;;;10410791;28;20256;-78
2022/05/21 04:43:15;;;;;;;3.47;3.17;;;18.20;97.70;;;;;;10406083;28;20198;-78
2022/05/21 04:48:19;;;;;;;3.20;2.90;;;18.20;98.20;;;;;;10408745;28;20240;-78
2022/05/21 04:53:21;;;;;;;3.40;3.20;;;18.20;97.60;;;;;;10409916;28;20247;-78
2022/05/21 04:58:23;;;;;;;3.63;3.07;;;18.20;96.70;;;;;;10411616;28;20256;-78
2022/05/21 05:03:27;;;;;;;3.03;2.90;;;18.20;96.80;;;;;;10412209;28;20194;-77
2022/05/21 05:08:29;;;;;;;3.47;3.20;;;18.20;96.50;;;;;;10410609;28;20229;-78
2022/05/21 05:13:31;;;;;;;4.10;3.00;;;18.20;97.10;;;;;;10407451;28;20264;-78
2022/05/21 05:18:34;;;;;;;3.10;2.90;;;18.20;95.30;;;;;;10408279;28;20313;-78
2022/05/21 05:23:37;;;;;;;4.70;3.27;;;18.20;95.50;;;;;;10406214;28;20203;-77
2022/05/21 05:28:39;;;;;;;3.37;3.17;;;18.20;95.40;;;;;;10411491;28;20221;-78
2022/05/21 05:33:42;;;;;;;2.40;2.30;;;18.20;95.10;;;;;;10415016;28;20190;-78
2022/05/21 05:38:44;;;;;;;3.13;2.93;;;18.20;96.30;;;;;;10418663;28;20662;-78
2022/05/21 05:43:46;;;;;;;2.97;2.63;;;18.30;95.30;;;;;;10418490;28;20683;-77
2022/05/21 05:48:50;;;;;;;3.07;2.87;;;18.30;95.10;;;;;;10460193;22;20760;-78
2022/05/21 05:53:52;;;;;;;2.63;2.53;;;18.40;95.50;;;;;;10485058;28;20199;-78
2022/05/21 06:04:16;;;;;;;2.60;2.40;;;18.40;94.30;;;;;;10419703;28;20244;-78
2022/05/21 06:09:18;;;;;;;2.63;2.43;;;18.50;94.40;;;;;;10441887;28;20688;-78
2022/05/21 06:14:20;;;;;;;2.37;2.27;;;18.50;92.20;;;;;;10457306;28;20198;-78
2022/05/21 06:19:24;;;;;;;2.70;2.50;;;18.50;92.00;;;;;;10470616;28;20209;-78
2022/05/21 06:24:26;;;;;;;2.13;1.93;;;18.50;92.70;;;;;;10468767;28;20269;-78
2022/05/21 06:29:28;;;;;;;2.40;2.20;;;18.60;91.90;;;;;;10415899;28;20221;-78
2022/05/21 06:34:31;;;;;;;2.30;2.20;;;18.60;91.80;;;;;;10434125;28;20645;-78
2022/05/21 06:39:35;;;;;;;2.30;2.20;;;18.80;91.80;;;;;;10452319;28;20646;-78
2022/05/21 06:44:37;;;;;;;1.93;1.83;;;18.90;90.80;;;;;;10427207;28;20190;-78
2022/05/21 06:49:40;;;;;;;2.30;2.10;;;19.20;89.20;;;;;;10472542;28;20221;-79
2022/05/21 06:54:42;;;;;;;1.90;1.80;;;19.30;90.70;;;;;;10468160;28;20206;-78
2022/05/21 06:59:45;;;;;;;2.70;1.90;;;19.50;89.80;;;;;;10460175;28;20217;-78
2022/05/21 07:10:11;;;;;;;1.80;1.70;;;20.20;89.10;;;;;;10444958;28;20700;-78
2022/05/21 07:15:14;;;;;;;1.80;1.70;;;20.20;86.40;;;;;;10427273;28;20563;-78
2022/05/21 07:20:21;;;;;;;3.20;2.57;;;20.50;85.90;;;;;;10439972;28;20304;-78
2022/05/21 07:25:27;;;;;;;2.60;1.97;;;20.60;84.20;;;;;;10435251;28;20228;-78
2022/05/21 07:30:30;;;;;;;2.03;1.60;;;20.70;84.40;;;;;;10438726;28;20221;-78
2022/05/21 07:35:37;;;;;;;1.50;1.40;;;21.00;85.90;;;;;;10421046;28;20197;-78
2022/05/21 07:40:41;;;;;;;2.80;1.67;;;21.20;83.30;;;;;;10406354;28;20305;-77
2022/05/21 07:45:44;;;;;;;2.10;1.60;;;21.40;81.90;;;;;;10444745;28;20205;-78
2022/05/21 07:50:50;;;;;;;2.17;1.60;;;21.60;81.20;;;;;;10430572;28;20228;-77
2022/05/21 07:55:55;;;;;;;1.60;1.50;;;21.80;80.00;;;;;;10433240;28;20201;-77
2022/05/21 08:00:57;;;;;;;1.40;1.30;;;22.00;77.90;;;;;;10471005;28;20217;-77
2022/05/21 08:06:01;;;;;;;1.30;1.20;;;22.20;77.70;;;;;;10469467;28;20232;-77
2022/05/21 08:11:03;;;;;;;1.67;1.57;;;22.70;78.50;;;;;;10448630;28;20765;-77
2022/05/21 08:16:05;;;;;;;4.40;2.53;;;23.30;75.40;;;;;;10420303;28;20229;-76
2022/05/21 08:21:09;;;;;;;1.50;1.40;;;23.90;75.70;;;;;;10470998;28;20267;-77
2022/05/21 08:31:30;;;;;;;1.50;1.40;;;25.10;71.20;;;;;;10449302;28;20688;-77
2022/05/21 08:36:34;;;;;;;1.50;1.40;;;25.80;67.70;;;;;;10457603;28;20635;-77
2022/05/21 08:41:39;;;;;;;4.03;1.90;;;26.30;68.10;;;;;;10458343;28;20296;-77
2022/05/21 08:46:53;;;;;;;1.63;1.53;;;26.70;67.00;;;;;;10453006;28;20211;-77
2022/05/21 08:52:02;;;;;;;1.83;1.43;;;26.90;65.30;;;;;;10462244;28;20618;-78
2022/05/21 08:57:05;;;;;;;46.53;5.60;;;27.10;64.50;;;;;;10417135;28;20208;-77
2022/05/21 09:02:14;;;;;;;2.00;1.87;;;27.20;63.70;;;;;;10415576;28;20245;-77
2022/05/21 09:07:21;;;;;;;1.30;1.30;;;27.20;60.90;;;;;;10431616;28;20653;-78
2022/05/21 09:12:28;;;;;;;2.70;1.93;;;27.50;60.80;;;;;;10421084;28;20197;-77
2022/05/21 09:17:30;;;;;;;1.70;1.60;;;27.60;60.40;;;;;;10421919;28;20197;-78
2022/05/21 09:22:34;;;;;;;3.33;1.60;;;27.40;59.70;;;;;;10447910;28;20252;-78
2022/05/21 09:27:41;;;;;;;1.40;1.40;;;27.20;61.90;;;;;;10445260;28;20549;-78
2022/05/21 09:32:46;;;;;;;1.80;1.70;;;27.40;59.90;;;;;;10440468;28;20288;-78
2022/05/21 09:37:50;;;;;;;1.80;1.63;;;27.60;58.80;;;;;;10423664;28;20212;-78
2022/05/21 09:48:18;;;;;;;1.70;1.60;;;27.90;59.40;;;;;;10440239;28;20217;-79
2022/05/21 09:53:33;;;;;;;1.47;1.47;;;28.30;58.10;;;;;;10419583;28;20573;-78
2022/05/21 09:58:37;;;;;;;2.30;2.10;;;29.00;56.70;;;;;;10459167;28;20266;-78
2022/05/21 10:03:47;;;;;;;1.80;1.70;;;29.90;57.20;;;;;;10463293;28;20289;-78
2022/05/21 10:14:21;;;;;;;1.63;1.53;;;32.70;52.70;;;;;;10437174;28;20210;-78
2022/05/21 10:19:30;;;;;;;1.67;1.60;;;33.10;50.90;;;;;;10443831;28;20300;-78
2022/05/21 10:24:43;;;;;;;1.70;1.60;;;31.30;51.90;;;;;;10438470;28;20197;-78
2022/05/21 10:30:03;;;;;;;1.50;1.40;;;29.60;53.30;;;;;;10436283;28;20216;-78
2022/05/21 10:35:17;;;;;;;1.70;1.60;;;28.20;56.00;;;;;;10438137;28;20200;-78
2022/05/21 10:40:35;;;;;;;1.67;1.57;;;27.10;57.60;;;;;;10439815;28;20224;-78
2022/05/21 10:45:41;;;;;;;2.67;1.50;;;26.40;59.50;;;;;;10438627;28;20630;-78
2022/05/21 10:50:50;;;;;;;1.90;1.80;;;25.70;60.20;;;;;;10442704;28;20308;-77
2022/05/21 10:56:03;;;;;;;2.03;1.77;;;25.10;60.00;;;;;;10441974;28;20201;-78
2022/05/21 11:01:14;;;;;;;2.70;1.80;;;24.70;62.60;;;;;;10424436;28;20304;-77
2022/05/21 11:06:30;;;;;;;4.23;1.47;;;24.40;64.60;;;;;;10425646;28;20200;-77
2022/05/21 11:11:45;;;;;;;1.50;1.40;;;24.10;64.30;;;;;;10412584;28;20698;-77
2022/05/21 11:16:53;;;;;;;1.83;1.73;;;23.90;64.40;;;;;;10428033;28;20224;-77
2022/05/21 11:22:03;;;;;;;3.33;1.70;;;23.80;64.00;;;;;;10438474;28;20217;-77
2022/05/21 11:27:12;;;;;;;2.00;1.60;;;23.70;64.50;;;;;;10430047;28;20224;-77
2022/05/21 11:37:52;;;;;;;4.13;1.40;;;23.40;66.60;;;;;;10465801;28;20189;-77
2022/05/21 11:42:56;;;;;;;2.40;2.20;;;23.40;65.90;;;;;;10451929;28;20277;-78
2022/05/21 11:48:15;;;;;;;2.10;2.00;;;23.30;66.20;;;;;;10468476;22;20217;-81
2022/05/21 11:53:34;;;;;;;2.27;2.17;;;23.20;64.20;;;;;;10399547;28;20733;-81
2022/05/21 11:59:16;;;;;;;1.80;1.70;;;23.10;64.00;;;;;;10407100;28;20230;-81
2022/05/21 12:04:55;;;;;;;1.90;1.80;;;23.10;65.10;;;;;;10380478;28;20234;-81
2022/05/21 12:10:01;;;;;;;2.00;1.90;;;23.10;65.80;;;;;;10372656;28;20221;-81
2022/05/21 12:15:16;;;;;;;1.70;1.60;;;23.20;66.80;;;;;;10333714;28;20203;-81
2022/05/21 12:20:41;;;;;;;4.67;3.00;;;23.20;64.40;;;;;;10364790;28;20255;-80
2022/05/21 12:25:59;;;;;;;2.50;1.80;;;23.20;63.80;;;;;;10372941;28;20277;-81
2022/05/21 12:31:03;;;;;;;1.73;1.53;;;23.30;63.80;;;;;;10383571;28;20229;-80
2022/05/21 12:36:19;;;;;;;5.07;2.40;;;23.30;65.80;;;;;;10369460;28;20257;-79
2022/05/21 12:41:27;;;;;;;2.20;1.87;;;23.30;65.20;;;;;;10369498;28;20262;-79
2022/05/21 12:46:32;;;;;;;1.80;1.70;;;23.40;63.80;;;;;;10358901;28;20202;-82
2022/05/21 12:51:39;;;;;;;8.27;2.77;;;23.30;64.20;;;;;;10379515;28;20226;-81
2022/05/21 12:56:41;;;;;;;2.20;2.00;;;23.40;63.50;;;;;;10405392;28;20271;-82
2022/05/21 13:01:55;;;;;;;2.00;1.80;;;23.50;62.10;;;;;;10363267;28;20219;-83
2022/05/21 13:07:04;;;;;;;1.93;1.83;;;23.40;61.90;;;;;;10399546;28;20297;-83
2022/05/21 13:12:15;;;;;;;1.50;1.40;;;23.40;62.80;;;;;;10376914;28;20226;-83
2022/05/21 13:17:30;;;;;;;1.70;1.60;;;23.50;61.10;;;;;;10393335;28;20198;-81
2022/05/21 13:22:58;;;;;;;2.00;1.90;;;23.70;62.50;;;;;;10396630;28;20282;-82
2022/05/21 13:28:00;;;;;;;2.43;1.90;;;24.00;60.80;;;;;;10397113;28;20273;-81
2022/05/21 13:33:08;;;;;;;2.13;1.83;;;24.20;59.00;;;;;;10397971;28;20202;-78
2022/05/21 13:38:14;;;;;;;5.50;1.67;;;24.30;59.10;;;;;;10377401;28;20245;-79
2022/05/21 13:43:18;;;;;;;1.80;1.23;;;24.20;58.90;;;;;;10376779;28;20227;-82
2022/05/21 13:48:23;;;;;;;2.80;1.73;;;24.20;59.10;;;;;;10396259;28;20218;-82
2022/05/21 13:53:29;;;;;;;1.80;1.70;;;24.10;59.20;;;;;;10396468;28;20194;-82
2022/05/21 13:58:34;;;;;;;1.70;1.60;;;24.00;59.00;;;;;;10392171;28;20238;-81
2022/05/21 14:03:44;;;;;;;1.60;1.50;;;24.00;60.50;;;;;;10388314;28;20210;-79
2022/05/21 14:08:56;;;;;;;2.30;1.60;;;23.90;59.80;;;;;;10378582;28;20223;-79
2022/05/21 14:14:01;;;;;;;3.77;2.30;;;23.90;60.50;;;;;;10402867;28;20658;-80
2022/05/21 14:19:06;;;;;;;1.80;1.60;;;23.80;62.90;;;;;;10383582;28;20218;-79
2022/05/21 14:24:17;;;;;;;1.97;1.60;;;23.70;61.50;;;;;;10368795;28;20218;-78
2022/05/21 14:29:42;;;;;;;1.70;1.60;;;23.60;61.00;;;;;;10371563;28;20276;-78
2022/05/21 14:34:45;;;;;;;1.80;1.67;;;23.60;62.50;;;;;;10373521;28;20198;-78
2022/05/21 14:39:48;;;;;;;2.97;1.73;;;23.70;61.70;;;;;;10382892;28;20690;-80
2022/05/21 14:44:52;;;;;;;1.70;1.60;;;23.70;61.90;;;;;;10378553;28;20203;-80
2022/05/21 14:56:24;;;;;;;1.90;1.47;;;23.50;62.90;;;;;;10366059;28;20220;-79
2022/05/21 15:01:28;;;;;;;2.70;1.80;;;23.40;63.50;;;;;;10369612;28;20211;-82
2022/05/21 15:06:33;;;;;;;3.87;1.63;;;23.30;63.00;;;;;;10384724;28;20206;-79
2022/05/21 15:11:37;;;;;;;1.87;1.50;;;23.30;64.30;;;;;;10363540;28;20242;-79
2022/05/21 15:16:39;;;;;;;2.10;1.70;;;23.30;63.80;;;;;;10346306;28;20245;-82
2022/05/21 15:21:45;;;;;;;2.10;1.30;;;23.30;61.40;;;;;;10360193;28;20756;-80
2022/05/21 15:26:50;;;;;;;3.87;1.67;;;23.20;61.00;;;;;;10371070;28;20208;-79
2022/05/21 15:31:52;;;;;;;2.80;2.03;;;23.30;61.90;;;;;;10373960;28;20604;-79
2022/05/21 15:36:55;;;;;;;1.53;1.43;;;23.40;62.40;;;;;;10357847;28;20209;-81
2022/05/21 15:42:00;;;;;;;1.90;1.70;;;23.40;60.90;;;;;;10374597;28;20227;-77
2022/05/21 15:47:03;;;;;;;2.10;1.90;;;23.50;60.20;;;;;;10356395;28;20218;-79
2022/05/21 15:52:06;;;;;;;2.87;1.90;;;23.60;61.00;;;;;;10364752;28;20230;-80
2022/05/21 15:57:11;;;;;;;2.00;1.73;;;23.60;61.40;;;;;;10340880;28;20203;-80
2022/05/21 16:02:20;;;;;;;1.70;1.60;;;23.70;61.50;;;;;;10362880;28;20226;-78
2022/05/21 16:07:23;;;;;;;1.70;1.60;;;23.60;61.80;;;;;;10376540;28;20207;-80
2022/05/21 16:12:27;;;;;;;1.40;1.30;;;23.60;60.50;;;;;;10383921;28;20234;-79
2022/05/21 16:17:30;;;;;;;2.37;2.17;;;23.60;61.90;;;;;;10382050;28;20209;-78
2022/05/21 16:22:32;;;;;;;2.57;1.50;;;23.50;62.40;;;;;;10379910;28;20219;-78
2022/05/21 16:27:36;;;;;;;1.67;1.30;;;23.50;60.90;;;;;;10361945;28;20278;-79
2022/05/21 16:32:38;;;;;;;1.80;1.50;;;23.60;60.60;;;;;;10363280;28;20324;-79
2022/05/21 16:37:40;;;;;;;5.73;1.70;;;23.50;61.80;;;;;;10364917;28;20237;-79
2022/05/21 16:42:45;;;;;;;1.53;1.40;;;23.50;60.60;;;;;;10379712;28;20654;-79
2022/05/21 16:47:50;;;;;;;2.77;1.73;;;23.40;60.20;;;;;;10385441;28;20268;-78
2022/05/21 16:52:52;;;;;;;2.57;1.57;;;23.30;61.50;;;;;;10335932;28;20203;-79
2022/05/21 16:57:56;;;;;;;1.63;1.53;;;23.10;61.60;;;;;;10366568;28;20229;-80
2022/05/21 17:02:59;;;;;;;1.40;1.30;;;22.90;61.40;;;;;;10353505;28;20206;-79
2022/05/21 17:08:02;;;;;;;1.90;1.80;;;22.90;61.80;;;;;;10369480;28;20206;-78
2022/05/21 17:13:06;;;;;;;2.10;1.90;;;22.80;62.00;;;;;;10379367;28;20202;-79
2022/05/21 17:18:09;;;;;;;1.60;1.50;;;22.70;61.20;;;;;;10382377;28;20589;-78
2022/05/21 17:23:11;;;;;;;2.50;1.40;;;22.60;63.20;;;;;;10347457;28;20198;-80
2022/05/21 17:33:34;;;;;;;1.63;1.50;;;22.50;62.80;;;;;;10340120;28;20677;-78
2022/05/21 17:38:38;;;;;;;1.53;1.43;;;22.40;63.30;;;;;;10383312;28;20246;-78
2022/05/21 17:43:42;;;;;;;2.43;1.90;;;22.30;63.50;;;;;;10370955;28;20293;-77
2022/05/21 17:48:44;;;;;;;2.80;1.90;;;22.30;64.30;;;;;;10404601;22;20518;-78
2022/05/21 17:53:46;;;;;;;1.73;1.63;;;22.20;64.20;;;;;;10485747;28;20284;-78
2022/05/21 17:58:50;;;;;;;2.03;1.80;;;22.20;63.30;;;;;;10449623;28;20224;-78
2022/05/21 18:03:53;;;;;;;2.00;1.90;;;22.10;64.70;;;;;;10430808;28;20226;-78
2022/05/21 18:08:56;;;;;;;2.27;2.07;;;22.10;65.50;;;;;;10443619;28;20221;-78
2022/05/21 18:14:00;;;;;;;3.20;2.30;;;22.00;64.30;;;;;;10397929;28;20211;-78
2022/05/21 18:19:20;;;;;;;2.00;1.90;;;22.00;65.30;;;;;;10433189;28;20218;-78
2022/05/21 18:24:24;;;;;;;2.97;2.10;;;22.00;67.10;;;;;;10437459;28;20259;-78
2022/05/21 18:29:31;;;;;;;2.07;1.90;;;21.90;67.30;;;;;;10429389;28;20221;-78
2022/05/21 18:34:37;;;;;;;4.60;2.13;;;21.90;67.80;;;;;;10431958;28;20212;-78
2022/05/21 18:39:44;;;;;;;2.17;2.07;;;21.80;66.90;;;;;;10451499;28;20622;-78
2022/05/21 18:44:50;;;;;;;2.50;2.30;;;21.80;67.50;;;;;;10460122;28;20244;-78
2022/05/21 18:49:52;;;;;;;2.63;2.43;;;21.70;68.00;;;;;;10451077;28;20233;-78
2022/05/21 18:54:54;;;;;;;2.27;2.17;;;21.60;69.20;;;;;;10453167;28;20231;-77
2022/05/21 18:59:58;;;;;;;4.50;2.60;;;21.60;69.00;;;;;;10457306;28;20700;-78
2022/05/21 19:05:00;;;;;;;2.87;2.57;;;21.50;69.00;;;;;;10445573;28;20197;-78
2022/05/21 19:10:03;;;;;;;2.00;1.70;;;21.50;68.70;;;;;;10430256;28;20724;-78
2022/05/21 19:15:08;;;;;;;2.87;2.67;;;21.40;69.80;;;;;;10429351;28;20247;-78
2022/05/21 19:20:11;;;;;;;2.17;2.00;;;21.30;69.40;;;;;;10434469;28;20217;-78
2022/05/21 19:25:14;;;;;;;2.60;2.40;;;21.30;69.60;;;;;;10407407;28;20730;-78
2022/05/21 19:30:17;;;;;;;2.87;2.67;;;21.20;70.80;;;;;;10455910;28;20227;-78
2022/05/21 19:35:19;;;;;;;3.67;2.60;;;21.10;72.60;;;;;;10413640;28;20625;-77
2022/05/21 19:45:42;;;;;;;2.57;2.37;;;20.70;73.60;;;;;;10421569;28;20198;-78
2022/05/21 19:50:45;;;;;;;4.33;2.07;;;20.40;74.40;;;;;;10401125;28;20232;-78
2022/05/21 19:55:48;;;;;;;2.53;2.33;;;20.20;75.90;;;;;;10414999;28;20870;-78
2022/05/21 20:00:51;;;;;;;3.07;2.87;;;20.20;75.50;;;;;;10445286;28;20209;-78
2022/05/21 20:05:53;;;;;;;2.57;2.43;;;20.00;75.40;;;;;;10420465;28;20676;-78
2022/05/21 20:10:55;;;;;;;3.10;2.20;;;20.00;77.10;;;;;;10445861;28;20244;-78
2022/05/21 20:15:59;;;;;;;3.90;2.70;;;19.90;77.50;;;;;;10452090;28;20205;-78
2022/05/21 20:21:04;;;;;;;3.57;2.50;;;19.80;77.60;;;;;;10457281;28;20209;-78
2022/05/21 20:26:06;;;;;;;5.37;3.40;;;19.70;78.10;;;;;;10459132;28;20197;-78
2022/05/21 20:31:10;;;;;;;4.33;3.87;;;19.60;78.50;;;;;;10435685;28;20275;-78
2022/05/21 20:36:14;;;;;;;4.80;4.00;;;19.50;79.20;;;;;;10435515;28;20657;-78
2022/05/21 20:41:17;;;;;;;3.83;3.53;;;19.30;80.10;;;;;;10451134;28;20240;-77
2022/05/21 20:46:20;;;;;;;3.03;2.70;;;19.20;80.30;;;;;;10443556;28;20210;-77
2022/05/21 20:51:22;;;;;;;5.07;3.80;;;19.10;80.10;;;;;;10449384;28;20252;-76
2022/05/21 20:56:24;;;;;;;3.30;3.10;;;18.90;81.40;;;;;;10429115;28;20228;-77
2022/05/21 21:01:28;;;;;;;2.90;2.70;;;18.80;81.60;;;;;;10429821;28;20221;-77
2022/05/21 21:06:31;;;;;;;3.90;3.50;;;18.80;81.50;;;;;;10433179;28;20619;-77
2022/05/21 21:11:33;;;;;;;5.07;3.40;;;18.80;81.20;;;;;;10414350;28;20744;-77
2022/05/21 21:16:37;;;;;;;3.80;3.50;;;18.80;81.70;;;;;;10451053;28;20201;-78
2022/05/21 21:21:39;;;;;;;3.60;3.13;;;18.70;81.80;;;;;;10439432;28;20209;-77
2022/05/21 21:26:41;;;;;;;3.43;3.13;;;18.70;82.50;;;;;;10429362;28;20201;-77
2022/05/21 21:31:44;;;;;;;4.23;3.83;;;18.60;82.70;;;;;;10445987;28;20697;-78
2022/05/21 21:36:50;;;;;;;3.67;3.00;;;18.60;82.70;;;;;;10431856;28;20201;-78
2022/05/21 21:41:54;;;;;;;3.63;3.33;;;18.60;82.80;;;;;;10433832;28;20320;-78
2022/05/21 21:46:58;;;;;;;3.10;2.90;;;18.60;82.80;;;;;;10446124;28;20209;-77
2022/05/21 21:52:00;;;;;;;3.93;3.53;;;18.50;83.40;;;;;;10446562;28;20223;-77
2022/05/21 21:57:03;;;;;;;3.17;2.90;;;18.40;83.50;;;;;;10430357;28;20205;-77
2022/05/21 22:02:06;;;;;;;3.27;3.00;;;18.50;84.20;;;;;;10414817;28;20222;-77
2022/05/21 22:07:09;;;;;;;2.87;2.50;;;18.50;83.20;;;;;;10426592;28;20197;-77
2022/05/21 22:12:12;;;;;;;2.93;2.63;;;18.40;82.90;;;;;;10438142;28;20225;-77
2022/05/21 22:17:16;;;;;;;2.63;2.43;;;18.40;84.00;;;;;;10452102;28;20197;-77
2022/05/21 22:22:19;;;;;;;3.00;2.80;;;18.40;83.60;;;;;;10455435;28;20221;-77
2022/05/21 22:27:23;;;;;;;4.53;2.33;;;18.30;82.10;;;;;;10440988;28;20204;-78
2022/05/21 22:32:26;;;;;;;3.33;2.97;;;18.30;83.90;;;;;;10453219;28;20598;-77
2022/05/21 22:37:31;;;;;;;2.47;2.20;;;18.30;83.30;;;;;;10434423;28;20718;-77
2022/05/21 22:42:33;;;;;;;5.13;2.13;;;18.20;83.90;;;;;;10413774;28;20296;-77
2022/05/21 22:47:37;;;;;;;3.00;2.80;;;18.20;84.40;;;;;;10414242;28;20636;-77
2022/05/21 22:52:42;;;;;;;2.20;2.10;;;18.00;82.50;;;;;;10400914;28;20725;-77
2022/05/21 22:57:44;;;;;;;2.40;2.30;;;17.90;84.70;;;;;;10422045;28;20206;-77
2022/05/21 23:02:48;;;;;;;3.00;2.77;;;17.80;83.30;;;;;;10399171;28;20217;-77
2022/05/21 23:07:55;;;;;;;3.90;2.17;;;17.90;84.80;;;;;;10412015;28;20193;-77
2022/05/21 23:12:57;;;;;;;2.10;2.00;;;17.90;84.20;;;;;;10411037;28;20705;-77
2022/05/21 23:18:16;;;;;;;2.97;2.37;;;17.80;84.20;;;;;;10423929;28;20514;-78
2022/05/21 23:23:21;;;;;;;3.17;2.83;;;17.90;84.10;;;;;;10427215;28;20186;-77
2022/05/21 23:28:25;;;;;;;2.47;2.27;;;17.90;84.40;;;;;;10421538;28;20243;-77
2022/05/21 23:33:32;;;;;;;3.77;2.60;;;17.90;83.70;;;;;;10434418;28;20304;-77
2022/05/21 23:38:34;;;;;;;2.77;2.53;;;17.70;84.00;;;;;;10433250;28;20221;-77
2022/05/21 23:43:36;;;;;;;2.90;2.30;;;17.60;83.80;;;;;;10429164;28;20201;-77
2022/05/21 23:48:40;;;;;;;8.30;2.60;;;17.50;84.30;;;;;;10428838;28;20221;-78
2022/05/21 23:53:42;;;;;;;3.03;2.40;;;17.40;85.70;;;;;;10433982;28;20275;-80
2022/05/21 23:58:44;;;;;;;2.40;2.20;;;17.50;84.60;;;;;;10413578;28;20219;-78
